createdAt,value
2017-12-14T00:00:56.223Z,1007.5
2017-12-14T00:01:56.194Z,1007.39
2017-12-14T00:02:56.178Z,1007.44
2017-12-14T00:03:56.167Z,1007.45
2017-12-14T00:04:56.150Z,1007.38
2017-12-14T00:05:56.138Z,1007.37
2017-12-14T00:06:56.122Z,1007.37
2017-12-14T00:07:56.108Z,1007.37
2017-12-14T00:08:56.094Z,1007.39
2017-12-14T00:09:56.082Z,1007.31
2017-12-14T00:10:56.067Z,1007.23
2017-12-14T00:11:56.054Z,1007.18
2017-12-14T00:12:56.040Z,1007.13
2017-12-14T00:13:56.025Z,1007.03
2017-12-14T00:14:56.012Z,1006.92
2017-12-14T00:15:55.998Z,1006.89
2017-12-14T00:16:55.980Z,1006.88
2017-12-14T00:17:55.968Z,1006.79
2017-12-14T00:18:55.956Z,1006.77
2017-12-14T00:19:55.939Z,1006.71
2017-12-14T00:20:55.926Z,1006.74
2017-12-14T00:21:55.914Z,1006.66
2017-12-14T00:22:55.901Z,1006.54
2017-12-14T00:23:55.885Z,1006.49
2017-12-14T00:24:55.872Z,1006.45
2017-12-14T00:25:55.858Z,1006.35
2017-12-14T00:26:55.845Z,1006.29
2017-12-14T00:27:55.828Z,1006.3
2017-12-14T00:28:55.815Z,1006.25
2017-12-14T00:29:55.801Z,1006.16
2017-12-14T00:30:55.788Z,1006.13
2017-12-14T00:31:55.782Z,1006.02
2017-12-14T00:32:55.766Z,1006
2017-12-14T00:33:55.747Z,1006.03
2017-12-14T00:34:55.732Z,1006.05
2017-12-14T00:35:55.722Z,1006.13
2017-12-14T00:36:55.710Z,1006.16
2017-12-14T00:37:55.695Z,1006.19
2017-12-14T00:38:55.681Z,1006.16
2017-12-14T00:39:55.663Z,1006.13
2017-12-14T00:40:55.653Z,1006.04
2017-12-14T00:41:55.636Z,1005.94
2017-12-14T00:42:55.623Z,1005.9
2017-12-14T00:43:55.613Z,1005.91
2017-12-14T00:44:55.599Z,1005.82
2017-12-14T00:45:55.581Z,1005.88
2017-12-14T00:46:55.568Z,1005.67
2017-12-14T00:47:55.558Z,1005.73
2017-12-14T00:48:55.548Z,1005.66
2017-12-14T00:49:55.530Z,1005.5
2017-12-14T00:50:55.514Z,1005.48
2017-12-14T00:51:55.505Z,1005.44
2017-12-14T00:52:55.489Z,1005.45
2017-12-14T00:53:55.476Z,1005.38
2017-12-14T00:54:55.460Z,1005.36
2017-12-14T00:55:55.449Z,1005.33
2017-12-14T00:56:55.435Z,1005.41
2017-12-14T00:57:55.418Z,1005.31
2017-12-14T00:58:55.408Z,1005.32
2017-12-14T00:59:55.391Z,1005.25
2017-12-14T01:00:55.378Z,1005.25
2017-12-14T01:01:55.365Z,1005.26
2017-12-14T01:02:55.354Z,1005.11
2017-12-14T01:03:55.338Z,1005.1
2017-12-14T01:04:55.323Z,1005.13
2017-12-14T01:05:55.311Z,1005.14
2017-12-14T01:06:55.296Z,1004.95
2017-12-14T01:07:55.286Z,1005.03
2017-12-14T01:08:55.270Z,1005.01
2017-12-14T01:09:55.255Z,1005.03
2017-12-14T01:10:55.245Z,1005.04
2017-12-14T01:11:55.231Z,1004.91
2017-12-14T01:12:55.215Z,1004.93
2017-12-14T01:13:55.205Z,1004.87
2017-12-14T01:14:55.192Z,1004.94
2017-12-14T01:15:55.175Z,1004.92
2017-12-14T01:16:55.160Z,1004.83
2017-12-14T01:17:55.148Z,1004.83
2017-12-14T01:18:55.136Z,1004.84
2017-12-14T01:19:55.122Z,1004.83
2017-12-14T01:20:55.110Z,1004.82
2017-12-14T01:21:55.097Z,1004.77
2017-12-14T01:22:55.082Z,1004.8
2017-12-14T01:23:55.066Z,1004.79
2017-12-14T01:24:55.056Z,1004.78
2017-12-14T01:25:55.044Z,1004.7
2017-12-14T01:26:55.028Z,1004.61
2017-12-14T01:27:55.014Z,1004.58
2017-12-14T01:28:54.999Z,1004.58
2017-12-14T01:29:54.987Z,1004.59
2017-12-14T01:30:54.971Z,1004.64
2017-12-14T01:31:54.962Z,1004.69
2017-12-14T01:32:54.946Z,1004.7
2017-12-14T01:33:54.931Z,1004.74
2017-12-14T01:34:54.918Z,1004.71
2017-12-14T01:35:54.908Z,1004.7
2017-12-14T01:36:54.897Z,1004.72
2017-12-14T01:37:54.883Z,1004.85
2017-12-14T01:38:54.868Z,1004.78
2017-12-14T01:39:54.854Z,1004.76
2017-12-14T01:40:54.841Z,1004.77
2017-12-14T01:41:54.827Z,1004.75
2017-12-14T01:42:54.812Z,1004.73
2017-12-14T01:43:54.799Z,1004.83
2017-12-14T01:44:54.786Z,1004.78
2017-12-14T01:45:54.773Z,1004.78
2017-12-14T01:46:54.757Z,1004.8
2017-12-14T01:47:54.747Z,1004.86
2017-12-14T01:48:54.730Z,1004.81
2017-12-14T01:49:54.717Z,1004.75
2017-12-14T01:50:54.704Z,1004.77
2017-12-14T01:51:54.689Z,1004.72
2017-12-14T01:52:54.679Z,1004.66
2017-12-14T01:53:54.663Z,1004.74
2017-12-14T01:54:54.652Z,1004.7
2017-12-14T01:55:54.638Z,1004.75
2017-12-14T01:56:54.624Z,1004.75
2017-12-14T01:57:54.612Z,1004.76
2017-12-14T01:58:54.597Z,1004.72
2017-12-14T01:59:54.583Z,1004.78
2017-12-14T02:00:54.570Z,1004.73
2017-12-14T02:01:54.556Z,1004.71
2017-12-14T02:02:54.539Z,1004.84
2017-12-14T02:03:54.526Z,1004.87
2017-12-14T02:04:54.513Z,1004.87
2017-12-14T02:05:54.499Z,1004.85
2017-12-14T02:06:54.485Z,1004.73
2017-12-14T02:07:54.472Z,1004.78
2017-12-14T02:08:54.460Z,1004.71
2017-12-14T02:09:54.444Z,1004.75
2017-12-14T02:10:54.433Z,1004.76
2017-12-14T02:11:54.420Z,1004.69
2017-12-14T02:12:54.404Z,1004.75
2017-12-14T02:13:54.392Z,1004.68
2017-12-14T02:14:54.389Z,1004.71
2017-12-14T02:15:54.362Z,1004.77
2017-12-14T02:16:54.349Z,1004.76
2017-12-14T02:17:54.335Z,1004.82
2017-12-14T02:18:54.321Z,1004.78
2017-12-14T02:19:54.307Z,1004.86
2017-12-14T02:20:54.292Z,1004.88
2017-12-14T02:21:54.285Z,1004.87
2017-12-14T02:22:54.267Z,1004.87
2017-12-14T02:23:54.253Z,1004.88
2017-12-14T02:24:54.239Z,1004.92
2017-12-14T02:25:54.223Z,1004.91
2017-12-14T02:26:54.212Z,1004.82
2017-12-14T02:27:54.200Z,1004.74
2017-12-14T02:28:54.180Z,1004.68
2017-12-14T02:29:54.170Z,1004.65
2017-12-14T02:30:54.154Z,1004.63
2017-12-14T02:31:54.141Z,1004.61
2017-12-14T02:32:54.124Z,1004.65
2017-12-14T02:33:54.111Z,1004.68
2017-12-14T02:34:54.101Z,1004.58
2017-12-14T02:35:54.086Z,1004.51
2017-12-14T02:36:54.072Z,1004.53
2017-12-14T02:37:54.058Z,1004.56
2017-12-14T02:38:54.041Z,1004.45
2017-12-14T02:39:54.030Z,1004.47
2017-12-14T02:40:54.023Z,1004.52
2017-12-14T02:41:54.002Z,1004.36
2017-12-14T02:42:53.988Z,1004.36
2017-12-14T02:43:53.979Z,1004.41
2017-12-14T02:44:53.957Z,1004.28
2017-12-14T02:45:53.944Z,1004.22
2017-12-14T02:46:53.929Z,1004.13
2017-12-14T02:47:53.915Z,1004.11
2017-12-14T02:48:53.900Z,1004.07
2017-12-14T02:49:53.888Z,1004.04
2017-12-14T02:50:53.873Z,1004.07
2017-12-14T02:51:53.860Z,1004.07
2017-12-14T02:52:53.847Z,1004.02
2017-12-14T02:53:53.831Z,1003.98
2017-12-14T02:54:53.818Z,1003.96
2017-12-14T02:55:53.805Z,1003.95
2017-12-14T02:56:53.788Z,1003.88
2017-12-14T02:57:53.773Z,1003.86
2017-12-14T02:58:53.763Z,1003.7
2017-12-14T02:59:53.748Z,1003.78
2017-12-14T03:00:53.738Z,1003.82
2017-12-14T03:01:53.720Z,1003.9
2017-12-14T03:02:53.706Z,1003.82
2017-12-14T03:03:53.691Z,1003.83
2017-12-14T03:04:53.677Z,1003.7
2017-12-14T03:05:53.661Z,1003.72
2017-12-14T03:06:53.649Z,1003.79
2017-12-14T03:07:53.634Z,1003.73
2017-12-14T03:08:53.623Z,1003.73
2017-12-14T03:09:53.608Z,1003.63
2017-12-14T03:10:53.595Z,1003.6
2017-12-14T03:11:53.581Z,1003.63
2017-12-14T03:12:53.567Z,1003.62
2017-12-14T03:13:53.551Z,1003.62
2017-12-14T03:14:53.537Z,1003.64
2017-12-14T03:15:53.522Z,1003.53
2017-12-14T03:16:53.510Z,1003.58
2017-12-14T03:17:53.504Z,1003.56
2017-12-14T03:18:53.485Z,1003.58
2017-12-14T03:19:53.472Z,1003.58
2017-12-14T03:20:53.456Z,1003.53
2017-12-14T03:21:53.444Z,1003.59
2017-12-14T03:22:53.434Z,1003.56
2017-12-14T03:23:53.415Z,1003.49
2017-12-14T03:24:53.399Z,1003.52
2017-12-14T03:25:53.386Z,1003.51
2017-12-14T03:26:53.371Z,1003.45
2017-12-14T03:27:53.361Z,1003.4
2017-12-14T03:28:53.345Z,1003.36
2017-12-14T03:29:53.333Z,1003.3
2017-12-14T03:30:53.319Z,1003.33
2017-12-14T03:31:53.303Z,1003.24
2017-12-14T03:32:53.293Z,1003.25
2017-12-14T03:33:53.279Z,1003.32
2017-12-14T03:34:53.265Z,1003.25
2017-12-14T03:35:53.252Z,1003.28
2017-12-14T03:36:53.239Z,1003.26
2017-12-14T03:37:53.222Z,1003.29
2017-12-14T03:38:53.212Z,1003.29
2017-12-14T03:39:53.196Z,1003.26
2017-12-14T03:40:53.185Z,1003.33
2017-12-14T03:41:53.169Z,1003.35
2017-12-14T03:42:53.157Z,1003.26
2017-12-14T03:43:53.148Z,1003.33
2017-12-14T03:44:53.130Z,1003.27
2017-12-14T03:45:53.115Z,1003.26
2017-12-14T03:46:53.106Z,1003.27
2017-12-14T03:47:53.090Z,1003.32
2017-12-14T03:48:53.081Z,1003.34
2017-12-14T03:49:53.062Z,1003.24
2017-12-14T03:50:53.052Z,1003.26
2017-12-14T03:51:53.039Z,1003.25
2017-12-14T03:52:53.023Z,1003.26
2017-12-14T03:53:53.010Z,1003.29
2017-12-14T03:54:52.996Z,1003.25
2017-12-14T03:55:52.983Z,1003.22
2017-12-14T03:56:52.972Z,1003.18
2017-12-14T03:57:52.959Z,1003.16
2017-12-14T03:58:52.946Z,1003.19
2017-12-14T03:59:52.955Z,1003.14
2017-12-14T04:00:52.922Z,1003.16
2017-12-14T04:01:52.907Z,1003.19
2017-12-14T04:02:52.896Z,1003.18
2017-12-14T04:03:52.877Z,1003.13
2017-12-14T04:04:52.867Z,1003.06
2017-12-14T04:05:52.854Z,1003.09
2017-12-14T04:06:52.842Z,1003.03
2017-12-14T04:07:52.826Z,1003.06
2017-12-14T04:08:52.816Z,1003.11
2017-12-14T04:09:52.801Z,1003.12
2017-12-14T04:10:52.787Z,1003.16
2017-12-14T04:11:52.773Z,1003.15
2017-12-14T04:12:52.762Z,1003.15
2017-12-14T04:13:52.751Z,1003.15
2017-12-14T04:14:52.735Z,1003.13
2017-12-14T04:15:52.725Z,1003.16
2017-12-14T04:16:52.710Z,1003.13
2017-12-14T04:17:52.699Z,1003.15
2017-12-14T04:18:52.683Z,1003.11
2017-12-14T04:19:52.671Z,1003.14
2017-12-14T04:20:52.661Z,1003.15
2017-12-14T04:21:52.644Z,1003.12
2017-12-14T04:22:52.636Z,1003.12
2017-12-14T04:23:52.624Z,1003.04
2017-12-14T04:24:52.608Z,1003.07
2017-12-14T04:25:52.597Z,1002.99
2017-12-14T04:26:52.582Z,1002.99
2017-12-14T04:27:52.571Z,1002.96
2017-12-14T04:28:52.595Z,1002.94
2017-12-14T04:29:52.544Z,1002.95
2017-12-14T04:30:52.534Z,1002.99
2017-12-14T04:31:52.522Z,1002.98
2017-12-14T04:32:52.509Z,1003
2017-12-14T04:33:52.496Z,1002.97
2017-12-14T04:34:52.484Z,1002.93
2017-12-14T04:35:52.468Z,1002.98
2017-12-14T04:36:52.458Z,1002.94
2017-12-14T04:37:52.442Z,1002.99
2017-12-14T04:38:52.430Z,1002.95
2017-12-14T04:39:52.419Z,1002.94
2017-12-14T04:40:52.409Z,1002.94
2017-12-14T04:41:52.396Z,1002.95
2017-12-14T04:42:52.384Z,1002.94
2017-12-14T04:43:52.368Z,1002.97
2017-12-14T04:44:52.359Z,1002.93
2017-12-14T04:45:52.346Z,1002.96
2017-12-14T04:46:52.332Z,1002.95
2017-12-14T04:47:52.322Z,1003.05
2017-12-14T04:48:52.306Z,1003.18
2017-12-14T04:49:52.294Z,1003.22
2017-12-14T04:50:52.280Z,1003.29
2017-12-14T04:51:52.268Z,1003.31
2017-12-14T04:52:52.260Z,1003.34
2017-12-14T04:53:52.244Z,1003.39
2017-12-14T04:54:52.234Z,1003.37
2017-12-14T04:55:52.219Z,1003.37
2017-12-14T04:56:52.206Z,1003.5
2017-12-14T04:57:52.197Z,1003.53
2017-12-14T04:58:52.181Z,1003.43
2017-12-14T04:59:52.171Z,1003.51
2017-12-14T05:00:52.156Z,1003.4
2017-12-14T05:01:52.144Z,1003.37
2017-12-14T05:02:52.132Z,1003.4
2017-12-14T05:03:52.120Z,1003.46
2017-12-14T05:04:52.106Z,1003.43
2017-12-14T05:05:52.093Z,1003.44
2017-12-14T05:06:52.082Z,1003.36
2017-12-14T05:07:52.068Z,1003.42
2017-12-14T05:08:52.058Z,1003.45
2017-12-14T05:09:52.045Z,1003.39
2017-12-14T05:10:52.029Z,1003.37
2017-12-14T05:11:52.017Z,1003.31
2017-12-14T05:12:52.005Z,1003.32
2017-12-14T05:13:51.993Z,1003.33
2017-12-14T05:14:51.981Z,1003.42
2017-12-14T05:15:51.969Z,1003.45
2017-12-14T05:16:51.955Z,1003.47
2017-12-14T05:17:51.941Z,1003.49
2017-12-14T05:18:51.945Z,1003.45
2017-12-14T05:19:51.915Z,1003.5
2017-12-14T05:20:51.902Z,1003.44
2017-12-14T05:21:51.891Z,1003.5
2017-12-14T05:22:51.878Z,1003.5
2017-12-14T05:23:51.867Z,1003.53
2017-12-14T05:24:51.855Z,1003.62
2017-12-14T05:25:51.840Z,1003.6
2017-12-14T05:26:51.830Z,1003.56
2017-12-14T05:28:04.552Z,1003.53
2017-12-14T05:28:51.811Z,1003.47
2017-12-14T05:29:51.788Z,1003.43
2017-12-14T05:30:51.778Z,1003.46
2017-12-14T05:31:51.763Z,1003.39
2017-12-14T05:32:51.756Z,1003.41
2017-12-14T05:33:51.742Z,1003.44
2017-12-14T05:34:51.730Z,1003.38
2017-12-14T05:35:51.720Z,1003.32
2017-12-14T05:36:51.705Z,1003.31
2017-12-14T05:37:51.697Z,1003.32
2017-12-14T05:38:51.680Z,1003.33
2017-12-14T05:39:51.670Z,1003.27
2017-12-14T05:40:51.657Z,1003.24
2017-12-14T05:41:51.640Z,1003.27
2017-12-14T05:42:51.630Z,1003.23
2017-12-14T05:43:51.619Z,1003.3
2017-12-14T05:44:51.604Z,1003.23
2017-12-14T05:45:51.593Z,1003.25
2017-12-14T05:46:51.577Z,1003.27
2017-12-14T05:47:51.570Z,1003.32
2017-12-14T05:48:51.555Z,1003.27
2017-12-14T05:49:51.543Z,1003.31
2017-12-14T05:50:51.528Z,1003.35
2017-12-14T05:51:51.518Z,1003.31
2017-12-14T05:52:51.504Z,1003.29
2017-12-14T05:53:51.494Z,1003.33
2017-12-14T05:54:51.478Z,1003.36
2017-12-14T05:55:51.467Z,1003.31
2017-12-14T05:56:51.455Z,1003.35
2017-12-14T05:57:51.439Z,1003.36
2017-12-14T05:58:51.426Z,1003.38
2017-12-14T05:59:51.414Z,1003.5
2017-12-14T06:00:51.405Z,1003.49
2017-12-14T06:01:51.388Z,1003.47
2017-12-14T06:02:51.377Z,1003.43
2017-12-14T06:03:51.366Z,1003.5
2017-12-14T06:04:51.354Z,1003.45
2017-12-14T06:05:51.338Z,1003.53
2017-12-14T06:06:51.333Z,1003.51
2017-12-14T06:07:51.316Z,1003.55
2017-12-14T06:08:51.305Z,1003.56
2017-12-14T06:09:51.290Z,1003.63
2017-12-14T06:10:51.277Z,1003.61
2017-12-14T06:11:51.266Z,1003.6
2017-12-14T06:12:51.255Z,1003.62
2017-12-14T06:13:51.248Z,1003.69
2017-12-14T06:14:51.228Z,1003.69
2017-12-14T06:15:51.217Z,1003.58
2017-12-14T06:16:51.203Z,1003.63
2017-12-14T06:17:51.190Z,1003.68
2017-12-14T06:18:51.176Z,1003.75
2017-12-14T06:19:51.168Z,1003.73
2017-12-14T06:20:51.155Z,1003.79
2017-12-14T06:21:51.140Z,1003.72
2017-12-14T06:22:51.127Z,1003.74
2017-12-14T06:23:51.115Z,1003.71
2017-12-14T06:24:51.103Z,1003.78
2017-12-14T06:25:51.090Z,1003.75
2017-12-14T06:26:51.078Z,1003.8
2017-12-14T06:27:51.070Z,1003.79
2017-12-14T06:28:51.061Z,1003.79
2017-12-14T06:29:51.040Z,1003.75
2017-12-14T06:30:51.028Z,1003.74
2017-12-14T06:31:51.023Z,1003.74
2017-12-14T06:32:51.004Z,1003.74
2017-12-14T06:33:50.994Z,1003.76
2017-12-14T06:34:50.982Z,1003.74
2017-12-14T06:35:50.972Z,1003.76
2017-12-14T06:36:50.958Z,1003.73
2017-12-14T06:37:50.943Z,1003.74
2017-12-14T06:38:50.929Z,1003.74
2017-12-14T06:39:50.917Z,1003.76
2017-12-14T06:40:50.907Z,1003.75
2017-12-14T06:41:50.892Z,1003.71
2017-12-14T06:42:50.879Z,1003.78
2017-12-14T06:43:50.868Z,1003.76
2017-12-14T06:44:50.857Z,1003.8
2017-12-14T06:45:50.845Z,1003.8
2017-12-14T06:46:50.836Z,1003.8
2017-12-14T06:47:50.817Z,1003.77
2017-12-14T06:48:50.805Z,1003.82
2017-12-14T06:49:50.793Z,1003.8
2017-12-14T06:50:50.781Z,1003.84
2017-12-14T06:51:50.768Z,1003.9
2017-12-14T06:52:50.755Z,1003.89
2017-12-14T06:53:50.747Z,1003.83
2017-12-14T06:54:50.733Z,1003.88
2017-12-14T06:55:50.720Z,1003.9
2017-12-14T06:56:50.712Z,1003.89
2017-12-14T06:57:50.695Z,1003.93
2017-12-14T06:58:50.684Z,1004
2017-12-14T06:59:50.669Z,1004.06
2017-12-14T07:00:50.660Z,1004.05
2017-12-14T07:01:50.653Z,1004.15
2017-12-14T07:02:50.631Z,1004.15
2017-12-14T07:03:50.619Z,1004.14
2017-12-14T07:04:50.610Z,1004.22
2017-12-14T07:05:50.597Z,1004.21
2017-12-14T07:06:50.581Z,1004.21
2017-12-14T07:07:50.586Z,1004.26
2017-12-14T07:08:50.558Z,1004.3
2017-12-14T07:09:50.547Z,1004.3
2017-12-14T07:10:50.531Z,1004.23
2017-12-14T07:11:50.522Z,1004.17
2017-12-14T07:12:50.508Z,1004.13
2017-12-14T07:13:50.496Z,1004.15
2017-12-14T07:14:50.484Z,1004.08
2017-12-14T07:15:50.471Z,1004.04
2017-12-14T07:16:50.455Z,1004.06
2017-12-14T07:17:50.444Z,1004.05
2017-12-14T07:18:50.432Z,1004.08
2017-12-14T07:19:50.420Z,1004.1
2017-12-14T07:20:50.426Z,1004.08
2017-12-14T07:21:50.392Z,1004.1
2017-12-14T07:22:50.397Z,1004.03
2017-12-14T07:23:50.376Z,1004
2017-12-14T07:24:50.355Z,1004
2017-12-14T07:25:50.344Z,1004.01
2017-12-14T07:26:50.345Z,1003.95
2017-12-14T07:27:50.318Z,1003.94
2017-12-14T07:28:50.306Z,1003.96
2017-12-14T07:29:50.290Z,1003.92
2017-12-14T07:30:50.277Z,1003.94
2017-12-14T07:31:50.267Z,1003.89
2017-12-14T07:32:50.252Z,1003.9
2017-12-14T07:33:50.242Z,1004.01
2017-12-14T07:34:50.230Z,1004.06
2017-12-14T07:35:50.230Z,1004.07
2017-12-14T07:36:50.205Z,1004.15
2017-12-14T07:37:50.190Z,1004.13
2017-12-14T07:38:50.181Z,1004.12
2017-12-14T07:39:50.165Z,1004.13
2017-12-14T07:40:50.155Z,1004.16
2017-12-14T07:41:50.141Z,1004.2
2017-12-14T07:42:50.132Z,1004.16
2017-12-14T07:43:50.156Z,1004.09
2017-12-14T07:44:50.102Z,1004.1
2017-12-14T07:45:50.089Z,1004.11
2017-12-14T07:46:50.072Z,1004.11
2017-12-14T07:47:50.062Z,1004.1
2017-12-14T07:48:50.047Z,1004.07
2017-12-14T07:49:50.037Z,1003.99
2017-12-14T07:50:50.024Z,1003.97
2017-12-14T07:51:50.011Z,1003.91
2017-12-14T07:52:49.996Z,1003.88
2017-12-14T07:53:49.982Z,1003.87
2017-12-14T07:54:49.973Z,1003.86
2017-12-14T07:55:49.957Z,1003.84
2017-12-14T07:56:49.947Z,1003.85
2017-12-14T07:57:49.931Z,1003.89
2017-12-14T07:58:49.919Z,1003.84
2017-12-14T07:59:49.909Z,1003.83
2017-12-14T08:00:49.894Z,1003.8
2017-12-14T08:01:49.880Z,1003.8
2017-12-14T08:02:49.867Z,1003.82
2017-12-14T08:03:49.857Z,1003.78
2017-12-14T08:04:49.844Z,1003.79
2017-12-14T08:05:49.843Z,1003.76
2017-12-14T08:06:49.817Z,1003.7
2017-12-14T08:07:49.807Z,1003.77
2017-12-14T08:08:49.791Z,1003.8
2017-12-14T08:09:49.783Z,1003.85
2017-12-14T08:10:49.769Z,1003.84
2017-12-14T08:11:49.756Z,1003.8
2017-12-14T08:12:49.740Z,1003.76
2017-12-14T08:13:49.727Z,1003.8
2017-12-14T08:14:49.715Z,1003.89
2017-12-14T08:15:49.704Z,1003.91
2017-12-14T08:16:49.691Z,1003.92
2017-12-14T08:17:49.677Z,1003.91
2017-12-14T08:18:49.668Z,1003.89
2017-12-14T08:19:49.651Z,1003.91
2017-12-14T08:20:49.652Z,1003.94
2017-12-14T08:21:49.626Z,1003.93
2017-12-14T08:22:49.618Z,1003.99
2017-12-14T08:23:49.605Z,1003.94
2017-12-14T08:24:49.588Z,1003.97
2017-12-14T08:25:49.576Z,1003.95
2017-12-14T08:26:49.562Z,1003.93
2017-12-14T08:27:49.550Z,1003.93
2017-12-14T08:28:49.537Z,1003.95
2017-12-14T08:29:49.525Z,1003.93
2017-12-14T08:30:49.516Z,1003.93
2017-12-14T08:31:49.502Z,1003.89
2017-12-14T08:32:49.488Z,1003.89
2017-12-14T08:33:49.476Z,1003.87
2017-12-14T08:34:49.468Z,1003.87
2017-12-14T08:35:49.451Z,1003.85
2017-12-14T08:36:49.439Z,1003.82
2017-12-14T08:37:49.426Z,1003.78
2017-12-14T08:38:49.411Z,1003.76
2017-12-14T08:39:49.405Z,1003.75
2017-12-14T08:40:49.388Z,1003.7
2017-12-14T08:41:49.374Z,1003.65
2017-12-14T08:42:49.371Z,1003.62
2017-12-14T08:43:49.351Z,1003.59
2017-12-14T08:44:49.340Z,1003.57
2017-12-14T08:45:49.328Z,1003.57
2017-12-14T08:46:49.338Z,1003.58
2017-12-14T08:47:49.313Z,1003.56
2017-12-14T08:48:49.505Z,1003.53
2017-12-14T08:49:49.295Z,1003.52
2017-12-14T08:50:49.273Z,1003.53
2017-12-14T08:51:49.262Z,1003.52
2017-12-14T08:52:49.255Z,1003.53
2017-12-14T08:53:49.230Z,1003.56
2017-12-14T08:54:49.215Z,1003.55
2017-12-14T08:55:49.226Z,1003.51
2017-12-14T08:56:49.202Z,1003.51
2017-12-14T08:57:49.194Z,1003.5
2017-12-14T08:58:49.178Z,1003.48
2017-12-14T08:59:49.152Z,1003.43
2017-12-14T09:00:49.155Z,1003.39
2017-12-14T09:01:49.149Z,1003.39
2017-12-14T09:02:49.133Z,1003.4
2017-12-14T09:03:49.111Z,1003.43
2017-12-14T09:04:49.100Z,1003.45
2017-12-14T09:05:49.079Z,1003.49
2017-12-14T09:06:49.080Z,1003.48
2017-12-14T09:07:49.259Z,1003.42
2017-12-14T09:08:49.067Z,1003.42
2017-12-14T09:09:49.035Z,1003.37
2017-12-14T09:10:49.021Z,1003.39
2017-12-14T09:11:49.037Z,1003.32
2017-12-14T09:12:49.014Z,1003.33
2017-12-14T09:13:49.010Z,1003.34
2017-12-14T09:14:48.975Z,1003.34
2017-12-14T09:15:48.962Z,1003.32
2017-12-14T09:16:48.957Z,1003.33
2017-12-14T09:17:48.948Z,1003.27
2017-12-14T09:18:48.950Z,1003.31
2017-12-14T09:19:48.933Z,1003.25
2017-12-14T09:20:48.917Z,1003.36
2017-12-14T09:21:48.901Z,1003.37
2017-12-14T09:22:48.888Z,1003.37
2017-12-14T09:23:48.875Z,1003.43
2017-12-14T09:24:48.864Z,1003.45
2017-12-14T09:25:48.848Z,1003.4
2017-12-14T09:26:48.842Z,1003.41
2017-12-14T09:27:48.831Z,1003.43
2017-12-14T09:28:48.817Z,1003.43
2017-12-14T09:29:49.020Z,1003.45
2017-12-14T09:30:48.795Z,1003.47
2017-12-14T09:31:48.782Z,1003.46
2017-12-14T09:32:48.774Z,1003.46
2017-12-14T09:33:48.761Z,1003.38
2017-12-14T09:34:48.746Z,1003.36
2017-12-14T09:35:48.731Z,1003.34
2017-12-14T09:36:48.932Z,1003.3
2017-12-14T09:37:48.702Z,1003.32
2017-12-14T09:38:48.700Z,1003.28
2017-12-14T09:39:48.690Z,1003.32
2017-12-14T09:40:48.661Z,1003.25
2017-12-14T09:41:48.659Z,1003.27
2017-12-14T09:42:48.645Z,1003.29
2017-12-14T09:43:48.627Z,1003.29
2017-12-14T09:44:48.615Z,1003.23
2017-12-14T09:45:48.607Z,1003.28
2017-12-14T09:46:48.599Z,1003.29
2017-12-14T09:47:48.584Z,1003.31
2017-12-14T09:48:48.573Z,1003.32
2017-12-14T09:49:48.562Z,1003.31
2017-12-14T09:50:48.550Z,1003.28
2017-12-14T09:51:48.537Z,1003.24
2017-12-14T09:52:48.527Z,1003.27
2017-12-14T09:53:48.512Z,1003.31
2017-12-14T09:54:48.499Z,1003.31
2017-12-14T09:55:48.489Z,1003.29
2017-12-14T09:56:48.480Z,1003.29
2017-12-14T09:57:48.482Z,1003.26
2017-12-14T09:58:48.464Z,1003.3
2017-12-14T09:59:48.450Z,1003.26
2017-12-14T10:00:48.435Z,1003.28
2017-12-14T10:01:48.421Z,1003.27
2017-12-14T10:02:48.409Z,1003.28
2017-12-14T10:03:48.398Z,1003.28
2017-12-14T10:04:48.389Z,1003.3
2017-12-14T10:05:48.378Z,1003.39
2017-12-14T10:06:48.374Z,1003.46
2017-12-14T10:07:48.377Z,1003.43
2017-12-14T10:08:48.363Z,1003.43
2017-12-14T10:09:48.333Z,1003.5
2017-12-14T10:10:48.321Z,1003.49
2017-12-14T10:11:48.311Z,1003.49
2017-12-14T10:12:48.307Z,1003.56
2017-12-14T10:13:48.487Z,1003.62
2017-12-14T10:14:48.282Z,1003.67
2017-12-14T10:15:48.262Z,1003.64
2017-12-14T10:16:48.255Z,1003.7
2017-12-14T10:17:48.240Z,1003.66
2017-12-14T10:18:48.232Z,1003.66
2017-12-14T10:19:48.233Z,1003.66
2017-12-14T10:20:48.223Z,1003.73
2017-12-14T10:21:48.196Z,1003.72
2017-12-14T10:22:48.205Z,1003.69
2017-12-14T10:23:48.176Z,1003.68
2017-12-14T10:24:48.172Z,1003.77
2017-12-14T10:25:48.155Z,1003.75
2017-12-14T10:26:48.139Z,1003.74
2017-12-14T10:27:48.162Z,1003.72
2017-12-14T10:28:48.124Z,1003.73
2017-12-14T10:29:48.119Z,1003.78
2017-12-14T10:30:48.110Z,1003.76
2017-12-14T10:31:48.083Z,1003.69
2017-12-14T10:32:48.089Z,1003.71
2017-12-14T10:33:48.079Z,1003.71
2017-12-14T10:34:48.057Z,1003.74
2017-12-14T10:35:48.059Z,1003.74
2017-12-14T10:36:48.039Z,1003.76
2017-12-14T10:37:48.032Z,1003.85
2017-12-14T10:38:48.005Z,1003.8
2017-12-14T10:39:48.011Z,1003.76
2017-12-14T10:40:47.996Z,1003.84
2017-12-14T10:41:47.989Z,1003.83
2017-12-14T10:42:47.982Z,1003.84
2017-12-14T10:43:47.967Z,1003.88
2017-12-14T10:44:47.943Z,1003.76
2017-12-14T10:45:48.166Z,1003.73
2017-12-14T10:46:47.917Z,1003.73
2017-12-14T10:47:47.923Z,1003.73
2017-12-14T10:48:47.920Z,1003.7
2017-12-14T10:49:47.903Z,1003.63
2017-12-14T10:50:47.892Z,1003.63
2017-12-14T10:51:47.882Z,1003.64
2017-12-14T10:52:47.870Z,1003.62
2017-12-14T10:53:47.857Z,1003.66
2017-12-14T10:54:47.851Z,1003.59
2017-12-14T10:55:47.838Z,1003.54
2017-12-14T10:56:47.821Z,1003.54
2017-12-14T10:57:47.819Z,1003.53
2017-12-14T10:58:47.804Z,1003.55
2017-12-14T10:59:47.801Z,1003.51
2017-12-14T11:00:47.987Z,1003.56
2017-12-14T11:01:47.791Z,1003.54
2017-12-14T11:02:47.781Z,1003.62
2017-12-14T11:03:47.753Z,1003.7
2017-12-14T11:04:47.743Z,1003.72
2017-12-14T11:05:47.744Z,1003.84
2017-12-14T11:06:47.739Z,1003.75
2017-12-14T11:07:47.916Z,1003.87
2017-12-14T11:08:47.708Z,1003.87
2017-12-14T11:09:47.703Z,1003.9
2017-12-14T11:10:47.695Z,1003.91
2017-12-14T11:11:47.681Z,1003.89
2017-12-14T11:12:47.676Z,1003.9
2017-12-14T11:13:47.663Z,1003.92
2017-12-14T11:14:47.647Z,1003.96
2017-12-14T11:15:47.643Z,1003.98
2017-12-14T11:16:47.624Z,1003.98
2017-12-14T11:17:47.611Z,1004.13
2017-12-14T11:18:47.605Z,1004.21
2017-12-14T11:19:47.582Z,1004.26
2017-12-14T11:20:47.576Z,1004.32
2017-12-14T11:21:47.557Z,1004.48
2017-12-14T11:22:47.547Z,1004.55
2017-12-14T11:23:47.533Z,1004.66
2017-12-14T11:24:47.527Z,1004.68
2017-12-14T11:25:47.517Z,1004.8
2017-12-14T11:26:47.509Z,1004.79
2017-12-14T11:27:47.496Z,1004.94
2017-12-14T11:28:47.483Z,1004.98
2017-12-14T11:29:47.477Z,1004.98
2017-12-14T11:30:47.467Z,1005.03
2017-12-14T11:31:47.456Z,1005.07
2017-12-14T11:32:47.443Z,1005.14
2017-12-14T11:33:47.431Z,1005.17
2017-12-14T11:34:47.419Z,1005.3
2017-12-14T11:35:47.412Z,1005.32
2017-12-14T11:36:47.397Z,1005.35
2017-12-14T11:37:47.389Z,1005.45
2017-12-14T11:38:47.376Z,1005.41
2017-12-14T11:39:47.370Z,1005.41
2017-12-14T11:40:47.354Z,1005.48
2017-12-14T11:41:47.342Z,1005.46
2017-12-14T11:42:47.332Z,1005.45
2017-12-14T11:43:47.319Z,1005.4
2017-12-14T11:44:47.311Z,1005.36
2017-12-14T11:45:47.297Z,1005.31
2017-12-14T11:46:47.282Z,1005.23
2017-12-14T11:47:47.278Z,1005.2
2017-12-14T11:48:47.257Z,1005.17
2017-12-14T11:49:47.252Z,1005.22
2017-12-14T11:50:47.244Z,1005.21
2017-12-14T11:51:47.225Z,1005.19
2017-12-14T11:52:47.220Z,1005.16
2017-12-14T11:53:47.205Z,1005.09
2017-12-14T11:54:47.180Z,1004.98
2017-12-14T11:55:47.170Z,1005.05
2017-12-14T11:56:47.167Z,1005.05
2017-12-14T11:57:47.156Z,1005.04
2017-12-14T11:58:47.135Z,1005.04
2017-12-14T11:59:47.119Z,1005.03
2017-12-14T12:00:47.110Z,1005.07
2017-12-14T12:01:47.101Z,1005
2017-12-14T12:02:47.093Z,1005.04
2017-12-14T12:03:47.086Z,1005.09
2017-12-14T12:04:47.064Z,1005.01
2017-12-14T12:05:47.051Z,1004.95
2017-12-14T12:06:47.056Z,1004.98
2017-12-14T12:07:47.043Z,1005.03
2017-12-14T12:08:47.022Z,1004.97